WetterOnline ( https://www.wetteronline.de )

Wetter aktuell Fürstenzell

Aktuelles Wetter: Fürstenzell (480m)

6-stündlich | Neueste Meldungen
Ortszeit Temperatur Wetter
So, 23.02. 7:00 5.9° C leichter Regen
So, 23.02. 1:00 7.5° C leichter Regen
Sa, 22.02. 19:00 9.1° C wolkig
Sa, 22.02. 13:00 9.2° C leicht bewölkt
Sa, 22.02. 7:00 0.2° C bewölkt
Sa, 22.02. 1:00 3.0° C bedeckt
Fr, 21.02. 19:00 3.9° C wolkenlos
Fr, 21.02. 13:00 4.7° C bewölkt
Ortszeit Temperatur Wetter
So, 23.02. 12:00 6.9° C leichter Regen
So, 23.02. 11:50 6.9° C leichter Regen
So, 23.02. 11:40 6.9° C leichter Regen
So, 23.02. 11:30 6.6° C leichter Regen
So, 23.02. 11:20 6.6° C leichter Regen
So, 23.02. 11:10 6.6° C leichter Regen
So, 23.02. 11:00 6.7° C bedeckt
So, 23.02. 10:30 6.7° C bedeckt
So, 23.02. 10:00 6.3° C Regen
So, 23.02. 9:30 6.0° C leichter Regen
So, 23.02. 9:00 5.9° C leichter Regen
Ortszeit Relative Feuchte Sichtweite
So, 23.02. 7:00 91% 10 km
So, 23.02. 1:00 80% 20 km
Sa, 22.02. 19:00 53% 55 km
Sa, 22.02. 13:00 50% >70 km
Sa, 22.02. 7:00 84% 45 km
Sa, 22.02. 1:00 65% 55 km
Fr, 21.02. 19:00 58% >70 km
Fr, 21.02. 13:00 58% >70 km
Ortszeit Relative Feuchte Sichtweite
So, 23.02. 12:00 90% 26 km
So, 23.02. 11:50 90% -
So, 23.02. 11:40 86% -
So, 23.02. 11:30 86% 24 km
So, 23.02. 11:20 86% -
So, 23.02. 11:10 85% -
So, 23.02. 11:00 83% 55 km
So, 23.02. 10:30 81% >70 km
So, 23.02. 10:00 86% >70 km
So, 23.02. 9:30 88% 35 km
So, 23.02. 9:00 87% 14 km
Ortszeit Niederschlagsmenge Niederschlagsart
So, 23.02. 7:00 8 l/m2 in 12 Std. Regen
So, 23.02. 1:00 0.1 l/m2 in 6 Std. Regen
Sa, 22.02. 19:00 0.0 l/m2 in 12 Std. -
Sa, 22.02. 13:00 0.0 l/m2 in 6 Std. -
Sa, 22.02. 7:00 0.0 l/m2 in 12 Std. -
Sa, 22.02. 1:00 0.0 l/m2 in 6 Std. -
Fr, 21.02. 19:00 0.1 l/m2 in 12 Std. -
Fr, 21.02. 13:00 0.1 l/m2 in 6 Std. Niederschlag
Ortszeit Niederschlagsmenge Niederschlagsart
So, 23.02. 12:00 0.5 l/m2 in 1 Std. Regen
So, 23.02. 11:50 keine Meldung -
So, 23.02. 11:40 keine Meldung -
So, 23.02. 11:30 0.1 l/m2 in 1 Std. -
So, 23.02. 11:20 keine Meldung -
So, 23.02. 11:10 keine Meldung -
So, 23.02. 11:00 0.1 l/m2 in 1 Std. Regen
So, 23.02. 10:30 0.1 l/m2 in 1 Std. Schneeregen
So, 23.02. 10:00 0.6 l/m2 in 1 Std. Regen
So, 23.02. 9:30 0.6 l/m2 in 1 Std. -
So, 23.02. 9:00 0.7 l/m2 in 1 Std. Regen
Ortszeit Stärke Spitze Richtung
km/h Bft. km/h Grad Sektor
So, 23.02. 7:00 33 5 57 240° SW
So, 23.02. 1:00 30 5 65 280° W
Sa, 22.02. 19:00 9 2 26 210° SW
Sa, 22.02. 13:00 14 3 22 260° W
Sa, 22.02. 7:00 0 0 11 - -
Sa, 22.02. 1:00 7 2 14 240° SW
Fr, 21.02. 19:00 7 2 54 220° SW
Fr, 21.02. 13:00 20 4 74 290° W
Ortszeit Stärke Spitze Richtung
km/h Bft. km/h Grad Sektor
So, 23.02. 12:00 7 2 14 210° SW
So, 23.02. 11:50 7 2 - 210° SW
So, 23.02. 11:40 6 1 - 200° S
So, 23.02. 11:30 7 2 14 180° S
So, 23.02. 11:20 7 2 - 180° S
So, 23.02. 11:10 7 2 - 190° S
So, 23.02. 11:00 9 2 33 220° SW
So, 23.02. 10:30 20 4 33 230° SW
So, 23.02. 10:00 25 4 40 230° SW
So, 23.02. 9:30 25 4 40 230° SW
So, 23.02. 9:00 29 5 47 230° SW
Ortszeit Untergrenze Bedeckung Gattung
total tief tief mittel hoch
So, 23.02. 7:00 810 m 7/8 8/8 - - -
So, 23.02. 1:00 1500 m 8/8 8/8 - - -
Sa, 22.02. 19:00 7800 m 8/8 0/8 - - -
Sa, 22.02. 13:00 8700 m 7/8 0/8 - - -
Sa, 22.02. 7:00 3300 m 7/8 7/8 - - -
Sa, 22.02. 1:00 3000 m 8/8 8/8 - - -
Fr, 21.02. 19:00 7500 m 0/8 0/8 - - -
Fr, 21.02. 13:00 1140 m 7/8 7/8 - - -
Ortszeit Bedeckungsgrad in Achtel und Wolkenuntergrenze
So, 23.02. 12:00 1(990m) 6(1500m) 7(1800m)
So, 23.02. 11:50 1(990m) 6(1500m) 7(1800m)
So, 23.02. 11:40 3(870m) 7(1440m) 7(1800m)
So, 23.02. 11:30 8(870m) 6(1080m) 8(1380m)
So, 23.02. 11:20 8(870m)
So, 23.02. 11:10 7(870m)
So, 23.02. 11:00 6(870m) 6(1110m) 8(1500m)
So, 23.02. 10:30 1(900m) 8(1500m)
So, 23.02. 10:00 7(840m) 8(1080m) 8(1470m)
So, 23.02. 9:30 2(810m) 5(1050m) 8(1380m)
So, 23.02. 9:00 8(1140m)
Ortszeit Luftdruck NN (hPa) Tendenz (hPa in 3 Std.)
So, 23.02. 7:00 1026 - 0,8
So, 23.02. 1:00 1026 + 1,1
Sa, 22.02. 19:00 1025 - 0,3
Sa, 22.02. 13:00 1028 - 0,7
Sa, 22.02. 7:00 1031 - 0,3
Sa, 22.02. 1:00 1031 - 0,1
Fr, 21.02. 19:00 1031 + 1,3
Fr, 21.02. 13:00 1030 + 0,7
Ortszeit Luftdruck NN (hPa) Tendenz (hPa in 3 Std.)
So, 23.02. 12:00 1022 - 2,9
So, 23.02. 11:50 1022 keine Meldung
So, 23.02. 11:40 1022 keine Meldung
So, 23.02. 11:30 1022 - 2,9
So, 23.02. 11:20 1022 keine Meldung
So, 23.02. 11:10 1022 keine Meldung
So, 23.02. 11:00 1023 - 2,5
So, 23.02. 10:30 1023 - 2,0
So, 23.02. 10:00 1024 - 1,1
So, 23.02. 9:30 1025 - 0,6
So, 23.02. 9:00 1025 - 1,2
Ortszeit Schneehöhe (cm)
So, 23.02. 7:00 0
So, 23.02. 1:00 0
Sa, 22.02. 19:00 0
Sa, 22.02. 13:00 0
Sa, 22.02. 7:00 0
Sa, 22.02. 1:00 0
Fr, 21.02. 19:00 0
Fr, 21.02. 13:00 0
Ortszeit Schneehöhe (cm)
So, 23.02. 12:00 0
So, 23.02. 11:50 0
So, 23.02. 11:40 0
So, 23.02. 11:30 0
So, 23.02. 11:20 0
So, 23.02. 11:10 0
So, 23.02. 11:00 0
So, 23.02. 10:30 0
So, 23.02. 10:00 0
So, 23.02. 9:30 0
So, 23.02. 9:00 0
Link zu dieser Seite / Seite empfehlen

Das Wetter in ...